Time;durP1;ratioP1;P1;durP2;ratioP2;P2;SDS_P1;SDS_P2;PMS_P1;PMS_P2;Temp;Humidity;BMP_temperature;BMP_pressure;BME280_temperature;BME280_humidity;BME280_pressure;Samples;Min_cycle;Max_cycle;Signal;HPM_P1;HPM_P2
2024/01/30 05:04:27;;;;;;;1999.90;720.40;;;;;;;-2.99;100.00;68162.34;6169798;27;20136;-83
2024/01/30 05:07:31;;;;;;;1999.90;807.13;;;;;;;-2.94;100.00;68164.91;5370474;27;33974;-84
2024/01/30 05:10:34;;;;;;;1999.90;821.55;;;;;;;-2.82;100.00;68181.88;5355834;33;34910;-84
2024/01/30 05:13:37;;;;;;;1999.90;770.55;;;;;;;-2.84;100.00;68179.00;5339595;33;33960;-84
2024/01/30 05:16:41;;;;;;;1999.90;862.95;;;;;;;-2.79;100.00;68182.13;5339295;33;34125;-85
2024/01/30 05:19:44;;;;;;;1999.90;821.80;;;;;;;-2.62;100.00;68209.50;5351504;33;34013;-85
2024/01/30 05:22:47;;;;;;;1999.90;812.85;;;;;;;-2.74;100.00;68245.38;5339684;33;33943;-84
2024/01/30 05:25:51;;;;;;;1999.90;813.12;;;;;;;-2.77;100.00;68187.03;5364440;33;34012;-84
2024/01/30 05:28:53;;;;;;;1999.90;811.67;;;;;;;-2.80;100.00;68181.00;5350087;33;33336;-85
2024/01/30 05:31:57;;;;;;;1999.90;810.80;;;;;;;-2.82;100.00;68181.28;5350240;33;34774;-85
2024/01/30 05:35:00;;;;;;;1999.90;847.03;;;;;;;-2.79;100.00;68184.75;5350196;33;34925;-85
2024/01/30 05:38:03;;;;;;;1999.90;825.70;;;;;;;-2.84;100.00;68179.00;5338319;33;34001;-85
2024/01/30 05:41:06;;;;;;;1999.90;815.72;;;;;;;-2.75;100.00;68189.31;5363229;33;34099;-85
2024/01/30 05:44:09;;;;;;;1999.90;837.03;;;;;;;-2.57;100.00;68206.81;5338824;33;33630;-85
2024/01/30 05:47:12;;;;;;;1999.90;788.67;;;;;;;-2.66;100.00;68257.19;5364045;33;34341;-85
2024/01/30 05:50:15;;;;;;;1999.90;817.75;;;;;;;-2.48;100.00;68219.78;5350412;33;34048;-85
2024/01/30 05:53:18;;;;;;;1999.90;846.15;;;;;;;-2.54;100.00;68218.13;5363114;33;34798;-84
2024/01/30 05:56:21;;;;;;;1999.90;851.65;;;;;;;-2.63;100.00;68205.75;5363557;33;34769;-85
2024/01/30 05:59:24;;;;;;;1999.90;849.28;;;;;;;-2.77;100.00;68185.00;5363178;33;35036;-85
2024/01/30 06:02:27;;;;;;;1999.90;790.20;;;;;;;-2.73;100.00;68194.25;5350004;33;34251;-85
2024/01/30 06:05:30;;;;;;;1999.90;816.65;;;;;;;-2.74;100.00;68188.44;5357466;33;34888;-85
2024/01/30 06:08:33;;;;;;;1999.90;829.97;;;;;;;-2.71;100.00;68193.94;5337381;33;34095;-85
2024/01/30 06:11:36;;;;;;;1999.90;819.05;;;;;;;-2.58;100.00;68208.28;5348459;33;34721;-85
2024/01/30 06:14:40;;;;;;;1999.90;796.12;;;;;;;-2.55;100.00;68214.34;5348799;33;33960;-85
2024/01/30 06:17:47;;;;;;;1999.90;901.42;;;;;;;-2.67;100.00;68198.50;5362506;33;34127;-85
2024/01/30 06:20:50;;;;;;;1999.90;798.10;;;;;;;-2.81;100.00;68179.81;5371899;33;34333;-85
2024/01/30 06:23:53;;;;;;;1999.90;766.70;;;;;;;-2.92;100.00;68170.41;5370551;33;35684;-85
2024/01/30 06:26:56;;;;;;;1999.90;793.78;;;;;;;-3.04;100.00;68159.81;5362036;33;34675;-85
2024/01/30 06:29:59;;;;;;;1999.90;770.65;;;;;;;-3.03;100.00;68157.75;5362802;33;34201;-85
2024/01/30 06:33:02;;;;;;;1999.90;798.62;;;;;;;-3.07;100.00;68211.22;5364177;33;34411;-85
2024/01/30 06:36:06;;;;;;;1999.90;776.85;;;;;;;-2.96;100.00;68168.97;5352739;33;34038;-85
2024/01/30 06:39:08;;;;;;;1999.90;767.70;;;;;;;-2.99;100.00;68165.53;5349366;33;33629;-85
2024/01/30 06:42:11;;;;;;;1999.90;881.17;;;;;;;-2.89;100.00;68176.44;5335776;33;34058;-85
2024/01/30 06:45:15;;;;;;;1999.90;777.50;;;;;;;-2.74;100.00;68191.06;5357716;33;34879;-85
2024/01/30 06:48:18;;;;;;;1999.90;799.88;;;;;;;-2.70;100.00;68194.50;5371347;32;35225;-89
2024/01/30 06:51:21;;;;;;;1999.90;829.87;;;;;;;-2.72;100.00;68195.41;5323394;33;34257;-89
2024/01/30 06:54:24;;;;;;;1999.90;780.92;;;;;;;-2.70;100.00;68252.56;5347998;33;34090;-89
2024/01/30 06:57:27;;;;;;;1999.90;829.28;;;;;;;-2.48;100.00;68219.78;5335816;33;34611;-89
2024/01/30 07:00:31;;;;;;;1999.90;807.08;;;;;;;-2.43;100.00;68224.94;5347554;33;34722;-86
2024/01/30 07:03:34;;;;;;;1999.90;761.05;;;;;;;-2.34;100.00;68237.88;5362956;33;34739;-86
2024/01/30 07:06:37;;;;;;;1999.90;829.22;;;;;;;-2.14;100.00;68260.28;5347633;33;34092;-85
2024/01/30 07:09:41;;;;;;;1999.90;822.97;;;;;;;-2.03;100.00;68272.34;5355543;33;33635;-85
2024/01/30 07:12:44;;;;;;;1999.90;830.17;;;;;;;-1.89;100.00;68286.41;5367419;33;34435;-86
2024/01/30 07:15:47;;;;;;;1999.90;812.28;;;;;;;-1.72;100.00;68304.81;5333306;33;34360;-86
2024/01/30 07:18:50;;;;;;;1999.90;841.60;;;;;;;-1.56;100.00;68322.59;5345602;33;35209;-85
2024/01/30 07:21:53;;;;;;;1999.90;813.40;;;;;;;-1.33;100.00;68348.47;5330396;33;34823;-85
2024/01/30 07:24:56;;;;;;;1999.90;824.25;;;;;;;-1.11;100.00;68370.56;5317949;33;33964;-85
2024/01/30 07:27:59;;;;;;;1999.90;859.25;;;;;;;-0.75;100.00;68414.63;5361191;33;33995;-85
2024/01/30 07:31:03;;;;;;;1999.90;830.60;;;;;;;-0.38;100.00;68458.06;5347885;33;34380;-85
2024/01/30 07:34:06;;;;;;;1999.90;889.00;;;;;;;-0.12;100.00;68485.38;5356679;33;34152;-85
2024/01/30 07:37:11;;;;;;;1999.90;866.22;;;;;;;0.29;100.00;68528.25;5348734;33;34689;-85
2024/01/30 07:40:14;;;;;;;1999.90;909.55;;;;;;;0.63;100.00;68572.09;5348533;33;33668;-86
2024/01/30 07:43:17;;;;;;;1999.90;969.42;;;;;;;0.65;100.00;68572.34;5361160;33;34083;-86
2024/01/30 07:46:20;;;;;;;1999.90;940.45;;;;;;;0.59;100.00;68570.69;5361067;33;34143;-86
2024/01/30 07:49:23;;;;;;;1999.90;991.33;;;;;;;0.38;100.00;68541.22;5363841;33;34600;-85
2024/01/30 07:52:26;;;;;;;1999.90;999.90;;;;;;;0.31;100.00;68533.19;5349169;33;33664;-85
2024/01/30 07:55:31;;;;;;;1999.90;990.25;;;;;;;0.41;100.00;68545.28;5360848;33;33824;-85
2024/01/30 07:58:35;;;;;;;1999.90;999.45;;;;;;;0.51;100.00;68558.84;5348293;33;34810;-85
2024/01/30 08:01:38;;;;;;;1999.90;982.58;;;;;;;0.50;100.00;68555.06;5360420;33;35037;-86
2024/01/30 08:04:41;;;;;;;1999.90;973.00;;;;;;;0.56;100.00;68617.16;5360901;33;34044;-86
2024/01/30 08:07:45;;;;;;;1999.90;999.90;;;;;;;0.67;100.00;68576.69;5347576;33;34799;-86
2024/01/30 08:10:51;;;;;;;1999.90;999.90;;;;;;;0.66;100.00;68575.53;5349648;33;34018;-86
2024/01/30 08:13:55;;;;;;;1999.90;999.90;;;;;;;0.78;100.00;68588.78;5345672;33;34741;-86
2024/01/30 08:16:58;;;;;;;1999.90;999.90;;;;;;;0.88;100.00;68600.31;5353254;33;34020;-85
2024/01/30 08:20:01;;;;;;;1999.90;999.90;;;;;;;0.93;100.00;68608.69;5362309;33;35482;-85
2024/01/30 08:23:04;;;;;;;1999.90;999.90;;;;;;;0.85;100.00;68594.81;5353353;33;34291;-84
2024/01/30 08:26:07;;;;;;;1999.90;999.90;;;;;;;0.87;100.00;68602.34;5340098;33;34015;-85
2024/01/30 08:29:11;;;;;;;1999.90;999.90;;;;;;;1.11;100.00;68624.19;5335222;33;34460;-85
2024/01/30 08:32:14;;;;;;;1999.90;999.90;;;;;;;1.19;100.00;68632.25;5339316;33;34578;-85
2024/01/30 08:35:18;;;;;;;1999.90;999.90;;;;;;;1.21;100.00;68634.56;5350716;33;34019;-85
2024/01/30 08:38:20;;;;;;;1999.90;999.90;;;;;;;1.39;100.00;68654.72;5355716;33;34057;-85
2024/01/30 08:41:24;;;;;;;1999.90;999.90;;;;;;;1.41;100.00;68715.53;5343240;33;34422;-84
2024/01/30 08:44:27;;;;;;;1999.90;999.90;;;;;;;1.49;100.00;68666.84;5371888;33;34687;-85
2024/01/30 08:47:31;;;;;;;1999.90;999.90;;;;;;;1.58;100.00;68735.13;5365642;33;34077;-85
2024/01/30 08:50:34;;;;;;;1999.90;999.90;;;;;;;1.82;100.00;68703.75;5348474;33;34095;-85
2024/01/30 08:53:37;;;;;;;1999.90;999.90;;;;;;;2.06;100.00;68735.53;5351239;33;34764;-86
2024/01/30 08:56:40;;;;;;;1999.90;999.90;;;;;;;1.94;100.00;68719.63;5350098;33;33901;-85
2024/01/30 08:59:45;;;;;;;1999.90;999.90;;;;;;;2.09;100.00;68733.72;5337443;33;33978;-85
2024/01/30 09:02:48;;;;;;;1999.90;999.90;;;;;;;2.08;100.00;68733.16;5353735;33;34056;-89
2024/01/30 09:05:51;;;;;;;1999.90;999.90;;;;;;;2.27;100.00;68759.75;5347208;33;33696;-90
2024/01/30 09:08:54;;;;;;;1999.90;999.90;;;;;;;2.40;100.00;68769.50;5341924;33;34127;-90
2024/01/30 09:12:01;;;;;;;1999.90;999.90;;;;;;;2.85;100.00;68822.91;5332181;33;34759;-90
2024/01/30 09:15:05;;;;;;;1999.90;999.90;;;;;;;3.06;100.00;68846.56;5351794;33;33984;-86
2024/01/30 09:18:09;;;;;;;1999.90;999.90;;;;;;;3.14;100.00;68855.25;5325686;33;34042;-86
2024/01/30 09:21:12;;;;;;;1999.90;999.90;;;;;;;3.26;100.00;68868.53;5340975;33;34659;-84
2024/01/30 09:24:16;;;;;;;1999.90;999.90;;;;;;;3.38;100.00;68888.22;5320739;33;33998;-85
2024/01/30 09:27:40;;;;;;;1999.90;999.90;;;;;;;3.44;100.00;68886.09;5349370;33;35199;-86
2024/01/30 09:30:43;;;;;;;1999.90;999.90;;;;;;;3.69;100.00;68914.97;5336327;33;35160;-85
2024/01/30 09:33:47;;;;;;;1999.90;999.90;;;;;;;3.42;100.00;68887.00;5346908;33;35380;-85
2024/01/30 09:36:51;;;;;;;1999.90;925.60;;;;;;;3.17;100.00;68861.34;5331987;33;34563;-85
2024/01/30 09:39:54;;;;;;;1999.90;963.20;;;;;;;3.24;100.00;68866.78;5331406;33;34169;-85
2024/01/30 09:42:59;;;;;;;1999.90;999.90;;;;;;;3.38;100.00;68882.94;5318607;33;33668;-85
2024/01/30 09:46:05;;;;;;;1999.90;988.60;;;;;;;3.51;100.00;68899.44;5330892;33;34141;-85
2024/01/30 09:49:09;;;;;;;1999.90;999.90;;;;;;;3.47;100.00;68889.56;5344038;33;34096;-85
2024/01/30 09:52:12;;;;;;;1999.90;999.90;;;;;;;3.37;100.00;68879.16;5332432;33;33924;-85
2024/01/30 09:55:16;;;;;;;1999.90;999.62;;;;;;;3.16;100.00;68858.13;5351702;33;34235;-85
2024/01/30 09:58:19;;;;;;;1999.90;997.50;;;;;;;3.36;100.00;68882.69;5347932;33;37187;-86
2024/01/30 10:01:24;;;;;;;1999.90;996.03;;;;;;;3.47;100.00;68890.13;5343363;33;34163;-85
2024/01/30 10:04:27;;;;;;;1999.90;997.50;;;;;;;3.75;100.00;68924.53;5332670;33;35173;-86
2024/01/30 10:07:30;;;;;;;1999.90;979.60;;;;;;;3.91;100.00;68941.88;5343252;33;34045;-85
2024/01/30 10:10:36;;;;;;;1999.90;949.80;;;;;;;3.93;100.00;68944.75;5344619;33;33942;-85
2024/01/30 10:13:39;;;;;;;1999.90;910.42;;;;;;;4.59;100.00;69018.72;5341344;33;34338;-86
2024/01/30 10:16:45;;;;;;;1999.90;831.30;;;;;;;5.17;100.00;69082.00;5315941;33;153637;-85
2024/01/30 10:19:47;;;;;;;1999.90;898.17;;;;;;;5.38;100.00;69108.97;5336201;33;34911;-85
2024/01/30 10:22:51;;;;;;;1999.90;912.97;;;;;;;5.51;100.00;69123.44;5357261;33;34045;-85
2024/01/30 10:25:57;;;;;;;1999.90;894.85;;;;;;;5.62;100.00;69141.47;5334629;33;33591;-85
2024/01/30 10:29:00;;;;;;;1999.90;853.53;;;;;;;5.55;100.00;69183.13;5324214;33;34506;-84
2024/01/30 10:32:04;;;;;;;1999.90;994.33;;;;;;;5.73;100.00;69148.31;5360128;33;34528;-84
2024/01/30 10:35:08;;;;;;;1999.90;893.33;;;;;;;5.32;100.00;69104.09;5358362;33;33903;-84
2024/01/30 10:38:15;;;;;;;1999.90;890.65;;;;;;;5.50;100.00;69121.69;5346423;33;34044;-84
2024/01/30 10:41:26;;;;;;;1999.90;867.60;;;;;;;5.53;100.00;69125.75;5352371;33;34164;-84
2024/01/30 10:44:33;;;;;;;1999.90;943.78;;;;;;;5.54;100.00;69129.56;5346609;33;34070;-85
2024/01/30 10:47:37;;;;;;;1999.90;940.28;;;;;;;5.49;100.00;69123.19;5360803;33;34742;-85
2024/01/30 10:50:42;;;;;;;1999.90;880.58;;;;;;;6.10;100.00;69190.59;5359560;33;34517;-85
2024/01/30 10:53:56;;;;;;;1999.90;806.83;;;;;;;6.24;100.00;69203.00;5359874;33;35666;-85
2024/01/30 10:57:04;;;;;;;1999.90;839.33;;;;;;;6.20;100.00;69201.59;5360993;33;34696;-85
2024/01/30 11:00:10;;;;;;;1999.90;788.12;;;;;;;5.74;100.00;69149.47;5360386;33;34736;-85
2024/01/30 11:03:13;;;;;;;1999.90;828.22;;;;;;;5.77;100.00;69152.38;5360712;33;34105;-85
2024/01/30 11:06:18;;;;;;;1999.90;863.17;;;;;;;5.43;100.00;69169.81;5348187;33;34308;-85
2024/01/30 11:09:21;;;;;;;1999.90;886.65;;;;;;;5.59;100.00;69130.03;5361371;33;33958;-85
2024/01/30 11:12:25;;;;;;;1999.90;950.60;;;;;;;5.62;100.00;69135.59;5332137;33;34031;-86
2024/01/30 11:15:31;;;;;;;1999.90;967.83;;;;;;;5.72;100.00;69202.81;5345974;33;34696;-86
2024/01/30 11:18:36;;;;;;;1999.90;909.08;;;;;;;5.86;100.00;69163.34;5325635;33;34137;-85
2024/01/30 11:21:42;;;;;;;1999.90;923.40;;;;;;;5.73;100.00;69147.72;5360645;33;34187;-86
2024/01/30 11:24:47;;;;;;;1999.90;917.78;;;;;;;5.83;100.00;69159.31;5361492;33;34817;-86
2024/01/30 11:27:59;;;;;;;1999.90;932.87;;;;;;;6.06;100.00;69241.66;5361980;33;34198;-86
2024/01/30 11:31:11;;;;;;;1999.90;893.75;;;;;;;5.94;100.00;69174.72;5336302;33;34106;-85
2024/01/30 11:34:14;;;;;;;1999.90;999.90;;;;;;;6.13;100.00;69194.06;5362568;33;33954;-85
2024/01/30 11:37:21;;;;;;;1999.90;999.90;;;;;;;5.98;100.00;69174.03;5336128;33;34897;-85
2024/01/30 11:40:27;;;;;;;1999.90;995.58;;;;;;;5.95;100.00;69172.66;5345270;33;34035;-85
2024/01/30 11:43:30;;;;;;;1999.90;943.13;;;;;;;6.10;100.00;69190.00;5362785;33;34608;-86
2024/01/30 11:46:34;;;;;;;1999.90;800.28;;;;;;;6.55;100.00;69238.91;5363980;33;34022;-86
2024/01/30 11:49:38;;;;;;;1999.90;942.08;;;;;;;6.80;100.00;69272.00;5337887;33;34085;-86
2024/01/30 11:52:41;;;;;;;1999.90;841.13;;;;;;;6.83;100.00;69272.81;5350558;33;34206;-86
2024/01/30 11:55:50;;;;;;;1999.90;903.78;;;;;;;7.04;100.00;69299.81;5356313;33;34718;-86
2024/01/30 11:58:53;;;;;;;1999.90;981.77;;;;;;;7.23;100.00;69318.03;5361757;33;33970;-85
2024/01/30 12:01:56;;;;;;;1999.90;818.97;;;;;;;7.90;100.00;69393.97;5339987;33;34890;-86
2024/01/30 12:05:04;;;;;;;1999.90;702.65;;;;;;;8.75;92.52;69492.94;5353220;33;34048;-86
2024/01/30 12:08:07;;;;;;;1999.90;763.87;;;;;;;8.66;87.76;69539.00;5358021;33;35727;-89
2024/01/30 12:11:10;;;;;;;1999.90;715.33;;;;;;;8.53;87.35;69467.97;5333827;33;34128;-90
2024/01/30 12:14:15;;;;;;;1999.90;685.53;;;;;;;9.15;84.82;69538.19;5352634;33;34477;-89
2024/01/30 12:17:24;;;;;;;1999.90;668.45;;;;;;;9.19;78.30;69540.75;5340941;33;33604;-86
2024/01/30 12:20:27;;;;;;;1716.20;497.20;;;;;;;9.75;75.97;69607.28;5346961;33;34148;-86
2024/01/30 12:23:31;;;;;;;1356.43;457.08;;;;;;;10.09;72.89;69642.38;5353244;33;34879;-85
2024/01/30 12:26:34;;;;;;;1082.95;415.30;;;;;;;10.76;67.03;69719.09;5354032;33;34763;-86
2024/01/30 12:29:37;;;;;;;866.80;329.30;;;;;;;10.69;63.14;69715.72;5352238;33;34732;-86
2024/01/30 12:32:44;;;;;;;612.88;293.50;;;;;;;12.85;57.07;69959.19;5342120;33;33925;-84
2024/01/30 12:35:48;;;;;;;510.30;278.23;;;;;;;13.53;49.94;70037.25;5353421;33;34150;-85
2024/01/30 12:39:04;;;;;;;391.73;216.15;;;;;;;12.85;50.82;69959.19;5369119;33;34357;-85
2024/01/30 12:42:08;;;;;;;509.42;251.15;;;;;;;13.01;51.16;69975.13;5331613;33;34788;-86
2024/01/30 12:45:10;;;;;;;403.17;233.02;;;;;;;13.16;49.72;69994.69;5341261;33;34833;-86
2024/01/30 12:48:14;;;;;;;331.35;223.48;;;;;;;14.04;46.56;70097.63;5351222;33;33798;-86
2024/01/30 12:51:17;;;;;;;266.10;169.25;;;;;;;15.52;41.54;70260.81;5367555;33;34241;-86
2024/01/30 12:54:20;;;;;;;170.93;143.87;;;;;;;15.65;39.75;70278.69;5346557;33;34025;-86
2024/01/30 12:57:23;;;;;;;164.57;130.75;;;;;;;15.97;39.20;70320.28;5346121;33;34765;-86
2024/01/30 13:00:26;;;;;;;127.68;84.70;;;;;;;16.92;36.66;70432.22;5348578;33;33967;-86
2024/01/30 13:03:29;;;;;;;67.90;49.30;;;;;;;17.49;34.47;70497.13;5348123;33;34808;-86
2024/01/30 13:06:35;;;;;;;36.00;29.87;;;;;;;17.25;35.93;70463.66;5346139;33;34794;-86
2024/01/30 13:09:38;;;;;;;34.60;24.17;;;;;;;17.21;36.30;70460.16;5348097;33;34322;-86
2024/01/30 13:12:41;;;;;;;40.63;30.62;;;;;;;16.57;35.40;70385.94;5335591;33;33992;-85
2024/01/30 13:15:45;;;;;;;72.78;57.50;;;;;;;14.95;38.22;70204.72;5336263;33;34812;-86
2024/01/30 13:18:49;;;;;;;121.43;100.07;;;;;;;12.23;43.79;69892.00;5361385;33;34102;-86
2024/01/30 13:21:52;;;;;;;297.05;181.60;;;;;;;10.97;47.79;69748.28;5349051;33;34679;-86
2024/01/30 13:24:55;;;;;;;328.02;228.62;;;;;;;9.54;53.24;69585.56;5345442;33;33898;-85
2024/01/30 13:27:58;;;;;;;393.90;260.00;;;;;;;8.28;58.06;69444.84;5359525;33;34073;-85
2024/01/30 13:31:05;;;;;;;531.42;304.17;;;;;;;7.63;61.19;69369.09;5361222;33;33912;-86
2024/01/30 13:34:08;;;;;;;833.33;374.37;;;;;;;7.12;63.89;69308.50;5348223;33;34072;-86
2024/01/30 13:37:11;;;;;;;1196.35;461.58;;;;;;;6.69;67.48;69259.25;5330632;33;34093;-85
2024/01/30 13:40:15;;;;;;;1877.57;625.28;;;;;;;6.41;70.43;69228.00;5333867;33;35143;-85
2024/01/30 13:43:18;;;;;;;1999.90;691.22;;;;;;;6.08;70.82;69190.94;5352720;33;33614;-85
2024/01/30 13:46:21;;;;;;;1999.90;793.72;;;;;;;6.03;72.15;69182.50;5350048;33;33703;-86
2024/01/30 13:49:24;;;;;;;1999.90;835.75;;;;;;;6.00;70.67;69178.44;5350752;33;33690;-85
2024/01/30 13:52:28;;;;;;;1999.90;947.67;;;;;;;5.83;71.90;69157.22;5361497;33;34087;-83
2024/01/30 13:55:40;;;;;;;1999.90;999.90;;;;;;;5.77;71.24;69155.59;5350028;33;34136;-83
2024/01/30 13:58:43;;;;;;;1999.90;984.92;;;;;;;5.49;70.89;69121.09;5337009;33;34798;-86
2024/01/30 14:01:46;;;;;;;1999.90;999.90;;;;;;;5.39;72.82;69112.19;5349165;33;34679;-88
2024/01/30 14:04:49;;;;;;;1999.90;999.90;;;;;;;5.42;67.87;69113.59;5363714;33;33589;-88
2024/01/30 14:07:53;;;;;;;1999.90;949.72;;;;;;;5.35;69.09;69102.25;5350843;33;34229;-90
2024/01/30 14:10:57;;;;;;;1999.90;999.90;;;;;;;5.29;71.06;69098.53;5369526;33;33153;-84
2024/01/30 14:14:00;;;;;;;1999.90;999.90;;;;;;;5.27;69.29;69096.25;5358391;33;34065;-84
2024/01/30 14:17:06;;;;;;;1999.90;999.90;;;;;;;5.29;67.90;69097.97;5350008;33;34411;-84
2024/01/30 14:20:10;;;;;;;1999.90;999.90;;;;;;;5.25;67.49;69096.56;5362470;33;35595;-85
2024/01/30 14:23:13;;;;;;;1999.90;999.90;;;;;;;5.16;68.18;69084.09;5355009;33;34230;-83
2024/01/30 14:26:18;;;;;;;1999.90;999.90;;;;;;;5.05;69.11;69073.44;5339288;33;34211;-84
2024/01/30 14:29:21;;;;;;;1999.90;999.90;;;;;;;4.99;69.60;69067.06;5352282;33;34799;-84
2024/01/30 14:32:25;;;;;;;1999.90;999.90;;;;;;;4.88;71.08;69051.69;5335460;33;34816;-84
2024/01/30 14:35:30;;;;;;;1999.90;973.62;;;;;;;4.93;70.59;69057.47;5349657;33;34304;-85
2024/01/30 14:38:34;;;;;;;1999.90;999.90;;;;;;;4.87;72.40;69051.13;5347455;33;34072;-84
2024/01/30 14:41:37;;;;;;;1999.90;988.15;;;;;;;4.78;73.67;69038.66;5335994;33;35078;-86
2024/01/30 14:44:43;;;;;;;1999.90;999.90;;;;;;;4.81;70.40;69046.81;5355073;33;34542;-85
2024/01/30 14:47:47;;;;;;;1999.90;999.90;;;;;;;4.82;71.09;69050.06;5363791;33;34616;-85
2024/01/30 14:50:50;;;;;;;1999.90;999.90;;;;;;;4.84;70.95;69047.06;5372128;33;34452;-85
2024/01/30 14:53:56;;;;;;;1999.90;999.90;;;;;;;4.83;70.99;69043.28;5364799;33;32476;-84
2024/01/30 14:56:59;;;;;;;1999.90;999.90;;;;;;;4.72;72.19;69037.00;5351521;33;34478;-85
2024/01/30 15:00:03;;;;;;;1999.90;999.90;;;;;;;4.69;73.63;69030.88;5350967;33;34228;-85
2024/01/30 15:03:06;;;;;;;1999.90;999.90;;;;;;;4.65;73.88;69028.91;5351782;33;34772;-85
2024/01/30 15:06:09;;;;;;;1999.90;999.90;;;;;;;4.60;74.62;69022.56;5325018;33;33942;-85
2024/01/30 15:09:16;;;;;;;1999.90;999.90;;;;;;;4.61;75.51;69024.28;5342896;33;34055;-85
2024/01/30 15:12:20;;;;;;;1999.90;999.90;;;;;;;4.59;76.08;69018.72;5351802;33;34679;-85
2024/01/30 15:15:25;;;;;;;1999.90;999.90;;;;;;;4.47;76.91;69005.44;5346437;33;34745;-84
2024/01/30 15:18:32;;;;;;;1999.90;999.90;;;;;;;4.47;76.08;69002.78;5356062;33;34127;-84
2024/01/30 15:21:35;;;;;;;1999.90;999.90;;;;;;;4.40;77.60;69000.56;5334478;33;34498;-85
2024/01/30 15:24:39;;;;;;;1999.90;999.90;;;;;;;4.31;78.89;68990.75;5355011;33;34190;-85
2024/01/30 15:27:41;;;;;;;1999.90;997.53;;;;;;;4.17;79.89;68974.56;5341999;33;34441;-84
2024/01/30 15:30:44;;;;;;;1999.90;999.90;;;;;;;4.01;83.40;68954.00;5350299;33;34285;-84
2024/01/30 15:33:48;;;;;;;1999.90;999.90;;;;;;;3.78;86.25;68925.38;5365338;33;34896;-85
2024/01/30 15:36:52;;;;;;;1999.90;999.90;;;;;;;3.66;89.05;68911.50;5352160;33;34900;-84
2024/01/30 15:39:57;;;;;;;1999.90;999.90;;;;;;;3.54;91.73;68900.88;5354387;33;35520;-84
2024/01/30 15:43:00;;;;;;;1999.90;999.90;;;;;;;3.45;94.82;68893.09;5354612;33;34069;-84
2024/01/30 15:46:03;;;;;;;1999.90;999.90;;;;;;;3.38;96.41;68880.31;5351495;33;34416;-84
2024/01/30 15:49:09;;;;;;;1999.90;999.90;;;;;;;3.22;98.32;68861.25;5363403;33;33659;-83
2024/01/30 15:52:14;;;;;;;1999.90;999.90;;;;;;;3.25;100.00;68864.72;5364645;33;33882;-84
2024/01/30 15:55:20;;;;;;;1999.90;999.90;;;;;;;3.18;100.00;68857.78;5351189;33;34022;-88
2024/01/30 15:58:24;;;;;;;1999.90;999.90;;;;;;;3.09;100.00;68849.47;5339478;33;34989;-89
2024/01/30 16:01:29;;;;;;;1999.90;999.90;;;;;;;2.92;100.00;68830.97;5354394;33;33987;-85
2024/01/30 16:04:33;;;;;;;1999.90;999.90;;;;;;;2.78;100.00;68817.47;5383629;33;34112;-86
2024/01/30 16:07:36;;;;;;;1999.90;999.90;;;;;;;2.68;100.00;68803.84;5371696;33;33685;-85
2024/01/30 16:10:40;;;;;;;1999.90;999.90;;;;;;;2.57;100.00;68788.53;5373575;33;34462;-86
2024/01/30 16:13:43;;;;;;;1999.90;999.90;;;;;;;2.49;100.00;68779.88;5359097;33;32572;-86
2024/01/30 16:16:46;;;;;;;1999.90;999.90;;;;;;;2.39;100.00;68770.97;5381253;33;34233;-86
2024/01/30 16:19:52;;;;;;;1999.90;999.90;;;;;;;2.32;100.00;68762.91;5355778;33;35499;-86
2024/01/30 16:22:55;;;;;;;1999.90;999.90;;;;;;;2.26;100.00;68755.97;5354301;33;34071;-86
2024/01/30 16:25:58;;;;;;;1999.90;999.90;;;;;;;2.20;100.00;68749.06;5365096;33;34925;-86
2024/01/30 16:29:01;;;;;;;1999.90;999.90;;;;;;;2.14;100.00;68798.03;5378470;33;34070;-86
2024/01/30 16:32:04;;;;;;;1999.90;999.90;;;;;;;2.04;100.00;68737.00;5380122;33;34562;-86
2024/01/30 16:35:07;;;;;;;1999.90;999.90;;;;;;;1.95;100.00;68724.00;5367515;33;34659;-86
2024/01/30 16:38:10;;;;;;;1999.90;999.90;;;;;;;1.90;100.00;68715.59;5367059;33;34094;-85
2024/01/30 16:41:13;;;;;;;1999.90;999.90;;;;;;;1.84;100.00;68706.03;5380416;33;34794;-85
2024/01/30 16:44:16;;;;;;;1999.90;999.90;;;;;;;1.79;100.00;68706.13;5367563;33;34528;-85
2024/01/30 16:47:20;;;;;;;1999.90;999.90;;;;;;;1.75;100.00;68698.28;5367077;33;34077;-85
2024/01/30 16:50:23;;;;;;;1999.90;999.90;;;;;;;1.73;100.00;68693.94;5379983;33;34902;-85
2024/01/30 16:53:26;;;;;;;1999.90;999.90;;;;;;;1.66;100.00;68688.50;5354282;33;34248;-84
